createdAt,value
2019-02-25T00:00:30.864Z,8.68
2019-02-25T00:03:03.119Z,8.53
2019-02-25T00:05:32.998Z,8.75
2019-02-25T00:08:03.303Z,9.32
2019-02-25T00:10:33.305Z,9.00
2019-02-25T00:13:03.051Z,8.85
2019-02-25T00:15:32.256Z,8.68
2019-02-25T00:18:01.451Z,9.35
2019-02-25T00:20:30.648Z,8.77
2019-02-25T00:22:59.968Z,8.67
2019-02-25T00:25:41.719Z,8.85
2019-02-25T00:28:14.043Z,8.96
2019-02-25T00:30:44.377Z,9.17
2019-02-25T00:33:13.934Z,9.31
2019-02-25T00:35:43.054Z,9.04
2019-02-25T00:38:13.351Z,8.19
2019-02-25T00:40:45.606Z,7.97
2019-02-25T00:43:16.431Z,7.91
2019-02-25T00:45:49.502Z,8.23
2019-02-25T00:48:20.259Z,8.00
2019-02-25T00:50:49.380Z,7.88
2019-02-25T00:53:18.853Z,7.69
2019-02-25T00:55:49.166Z,8.06
2019-02-25T00:58:19.376Z,8.48
2019-02-25T01:00:50.971Z,8.60
2019-02-25T01:03:21.580Z,8.54
2019-02-25T01:05:55.541Z,8.80
2019-02-25T01:08:27.461Z,8.73
2019-02-25T01:10:59.057Z,8.60
2019-02-25T01:13:31.650Z,8.48
2019-02-25T01:16:03.778Z,8.64
2019-02-25T01:18:35.114Z,8.44
2019-02-25T01:21:04.224Z,8.41
2019-02-25T01:23:35.105Z,8.48
2019-02-25T01:26:04.221Z,8.69
2019-02-25T01:28:33.321Z,8.70
2019-02-25T01:31:02.409Z,8.49
2019-02-25T01:33:31.519Z,8.01
2019-02-25T01:36:03.523Z,8.40
2019-02-25T01:38:32.593Z,7.86
2019-02-25T01:41:01.906Z,7.55
2019-02-25T01:43:33.382Z,7.51
2019-02-25T01:46:06.027Z,7.32
2019-02-25T01:48:36.206Z,7.57
2019-02-25T01:51:11.590Z,7.56
2019-02-25T01:53:42.753Z,7.48
2019-02-25T01:56:17.690Z,7.88
2019-02-25T01:58:52.067Z,7.91
2019-02-25T02:01:23.376Z,8.01
2019-02-25T02:03:52.481Z,7.70
2019-02-25T02:06:21.617Z,7.18
2019-02-25T02:08:53.235Z,7.15
2019-02-25T02:11:22.672Z,6.90
2019-02-25T02:13:51.778Z,6.60
2019-02-25T02:16:20.866Z,6.78
2019-02-25T02:18:52.537Z,7.15
2019-02-25T02:21:22.536Z,7.46
2019-02-25T02:23:51.649Z,7.65
2019-02-25T02:26:22.134Z,7.73
2019-02-25T02:28:55.891Z,7.57
2019-02-25T02:31:26.267Z,7.68
2019-02-25T02:33:55.296Z,7.96
2019-02-25T02:36:24.390Z,7.46
2019-02-25T02:38:56.300Z,7.75
2019-02-25T02:41:27.068Z,7.65
2019-02-25T02:44:03.490Z,7.60
2019-02-25T02:46:55.882Z,7.68
2019-02-25T02:49:25.221Z,7.53
2019-02-25T02:51:54.323Z,7.56
2019-02-25T02:54:25.509Z,7.94
2019-02-25T02:56:55.812Z,7.71
2019-02-25T02:59:30.811Z,7.60
2019-02-25T03:01:59.900Z,7.92
2019-02-25T03:04:30.668Z,8.10
2019-02-25T03:07:04.518Z,7.79
2019-02-25T03:09:39.195Z,7.99
2019-02-25T03:12:10.019Z,8.31
2019-02-25T03:14:39.086Z,8.06
2019-02-25T03:17:08.161Z,7.41
2019-02-25T03:19:41.040Z,7.01
2019-02-25T03:22:10.128Z,7.00
2019-02-25T03:24:39.466Z,6.94
2019-02-25T03:27:11.199Z,7.30
2019-02-25T03:29:40.285Z,7.21
2019-02-25T03:32:09.659Z,7.85
2019-02-25T03:34:39.078Z,7.80
2019-02-25T03:37:12.683Z,7.82
2019-02-25T03:39:42.958Z,7.76
2019-02-25T03:42:15.493Z,7.47
2019-02-25T03:44:47.613Z,7.08
2019-02-25T03:47:16.733Z,7.20
2019-02-25T03:49:46.063Z,7.08
2019-02-25T03:52:15.768Z,7.14
2019-02-25T03:54:44.878Z,6.96
2019-02-25T03:57:16.248Z,7.12
2019-02-25T03:59:47.942Z,7.34
2019-02-25T04:02:17.071Z,7.48
2019-02-25T04:04:47.995Z,7.52
2019-02-25T04:07:17.498Z,7.75
2019-02-25T04:09:48.913Z,7.61
2019-02-25T04:12:22.503Z,7.24
2019-02-25T04:14:52.529Z,7.86
2019-02-25T04:17:21.810Z,8.17
2019-02-25T04:19:57.310Z,8.54
2019-02-25T04:22:37.001Z,8.57
2019-02-25T04:25:06.586Z,8.49
2019-02-25T04:27:50.685Z,8.40
2019-02-25T04:30:19.774Z,8.04
2019-02-25T04:32:48.868Z,8.11
2019-02-25T04:35:19.053Z,7.48
2019-02-25T04:37:48.229Z,6.82
2019-02-25T04:40:17.373Z,7.15
2019-02-25T04:42:49.480Z,7.01
2019-02-25T04:45:25.467Z,6.66
2019-02-25T04:47:55.214Z,6.27
2019-02-25T04:50:25.044Z,6.29
2019-02-25T04:52:59.183Z,6.34
2019-02-25T04:55:28.544Z,6.64
2019-02-25T04:57:57.685Z,7.21
2019-02-25T05:00:28.320Z,7.58
2019-02-25T05:02:59.967Z,7.63
2019-02-25T05:05:29.021Z,7.48
2019-02-25T05:08:10.521Z,7.38
2019-02-25T05:10:50.469Z,7.35
2019-02-25T05:13:19.513Z,7.38
2019-02-25T05:16:07.765Z,7.00
2019-02-25T05:18:39.424Z,7.41
2019-02-25T05:21:17.139Z,7.28
2019-02-25T05:23:47.493Z,7.08
2019-02-25T05:26:20.149Z,7.27
2019-02-25T05:28:57.888Z,7.50
2019-02-25T05:31:28.085Z,7.26
2019-02-25T05:33:57.208Z,6.94
2019-02-25T05:36:29.331Z,6.88
2019-02-25T05:39:04.463Z,7.26
2019-02-25T05:41:35.272Z,7.62
2019-02-25T05:44:04.357Z,7.39
2019-02-25T05:46:38.079Z,7.07
2019-02-25T05:49:09.479Z,6.50
2019-02-25T05:51:38.725Z,7.02
2019-02-25T05:54:07.816Z,7.17
2019-02-25T05:56:38.207Z,7.22
2019-02-25T05:59:09.813Z,4.91
2019-02-25T06:01:42.943Z,7.03
2019-02-25T06:04:15.011Z,3.85
2019-02-25T06:06:44.082Z,7.05
2019-02-25T06:09:13.205Z,7.30
2019-02-25T06:11:42.375Z,7.33
2019-02-25T06:14:11.459Z,7.33
2019-02-25T06:16:40.554Z,7.64
2019-02-25T06:19:10.440Z,7.37
2019-02-25T06:21:39.804Z,6.80
2019-02-25T06:24:08.937Z,6.66
2019-02-25T06:26:40.053Z,7.34
2019-02-25T06:29:12.656Z,7.06
2019-02-25T06:31:45.501Z,7.14
2019-02-25T06:34:17.730Z,7.22
2019-02-25T06:36:50.608Z,7.02
2019-02-25T06:39:31.843Z,7.40
2019-02-25T06:42:04.383Z,7.48
2019-02-25T06:44:33.470Z,7.03
2019-02-25T06:47:05.458Z,6.76
2019-02-25T06:49:40.491Z,6.42
2019-02-25T06:52:10.690Z,7.09
2019-02-25T06:54:40.013Z,7.38
2019-02-25T06:57:14.779Z,7.71
2019-02-25T06:59:43.793Z,8.01
2019-02-25T07:02:16.273Z,7.25
2019-02-25T07:05:02.965Z,7.37
2019-02-25T07:07:54.942Z,7.22
2019-02-25T07:10:34.056Z,7.84
2019-02-25T07:13:20.020Z,7.80
2019-02-25T07:16:11.138Z,7.74
2019-02-25T07:19:03.192Z,7.89
2019-02-25T07:22:07.993Z,8.08
2019-02-25T07:24:59.999Z,8.26
2019-02-25T07:27:37.124Z,8.47
2019-02-25T07:30:36.036Z,8.71
2019-02-25T07:33:33.457Z,8.68
2019-02-25T07:36:14.376Z,8.96
2019-02-25T07:39:19.703Z,8.62
2019-02-25T07:42:04.426Z,8.24
2019-02-25T07:44:55.266Z,8.84
2019-02-25T07:47:41.839Z,8.91
2019-02-25T07:50:34.017Z,8.90
2019-02-25T07:53:29.171Z,9.24
2019-02-25T07:56:17.436Z,9.07
2019-02-25T07:59:03.917Z,9.01
2019-02-25T08:01:42.936Z,9.25
2019-02-25T08:04:21.354Z,9.09
2019-02-25T08:07:16.527Z,9.37
2019-02-25T08:10:16.907Z,9.61
2019-02-25T08:12:56.149Z,9.71
2019-02-25T08:15:41.694Z,9.85
2019-02-25T08:18:17.366Z,10.17
2019-02-25T08:20:56.142Z,9.97
2019-02-25T08:23:43.341Z,9.92
2019-02-25T08:26:27.579Z,9.68
2019-02-25T08:29:18.860Z,8.33
2019-02-25T08:32:10.081Z,9.73
2019-02-25T08:35:04.713Z,9.85
2019-02-25T08:38:13.334Z,10.15
2019-02-25T08:41:23.639Z,10.03
2019-02-25T08:44:20.422Z,9.70
2019-02-25T08:47:09.478Z,10.68
2019-02-25T08:49:50.657Z,10.73
2019-02-25T08:52:22.291Z,10.39
2019-02-25T08:54:51.531Z,10.20
2019-02-25T08:57:20.786Z,9.99
2019-02-25T08:59:55.282Z,10.18
2019-02-25T09:02:29.500Z,8.13
2019-02-25T09:04:58.749Z,8.83
2019-02-25T09:07:32.829Z,10.92
2019-02-25T09:10:03.894Z,10.85
2019-02-25T09:12:34.228Z,11.04
2019-02-25T09:15:06.112Z,11.04
2019-02-25T09:17:42.790Z,10.95
2019-02-25T09:20:13.819Z,10.93
2019-02-25T09:22:46.030Z,10.93
2019-02-25T09:25:16.307Z,11.14
2019-02-25T09:27:49.045Z,11.03
2019-02-25T09:30:24.219Z,11.07
2019-02-25T09:32:55.996Z,11.17
2019-02-25T09:35:30.909Z,11.25
2019-02-25T09:38:01.167Z,11.41
2019-02-25T09:40:36.772Z,11.54
2019-02-25T09:43:08.492Z,11.55
2019-02-25T09:45:37.625Z,11.56
2019-02-25T09:48:08.327Z,11.87
2019-02-25T09:50:40.653Z,11.56
2019-02-25T09:53:09.789Z,11.82
2019-02-25T09:55:38.944Z,11.85
2019-02-25T09:58:09.144Z,11.79
2019-02-25T10:00:39.337Z,11.88
2019-02-25T10:03:11.955Z,12.00
2019-02-25T10:05:41.077Z,12.08
2019-02-25T10:08:11.571Z,12.09
2019-02-25T10:10:44.047Z,12.13
2019-02-25T10:13:19.419Z,12.17
2019-02-25T10:15:54.891Z,12.08
2019-02-25T10:18:28.741Z,12.18
2019-02-25T10:21:02.142Z,12.30
2019-02-25T10:23:49.789Z,12.04
2019-02-25T10:26:19.111Z,12.29
2019-02-25T10:28:52.615Z,12.24
2019-02-25T10:31:21.690Z,12.30
2019-02-25T10:33:50.923Z,12.29
2019-02-25T10:36:21.269Z,12.37
2019-02-25T10:38:53.072Z,12.46
2019-02-25T10:41:25.558Z,12.76
2019-02-25T10:44:00.158Z,13.06
2019-02-25T10:46:32.080Z,13.04
2019-02-25T10:49:11.576Z,12.94
2019-02-25T10:51:41.192Z,13.14
2019-02-25T10:54:10.808Z,13.32
2019-02-25T10:57:12.775Z,13.20
2019-02-25T10:59:43.884Z,13.47
2019-02-25T11:02:15.236Z,13.51
2019-02-25T11:04:51.432Z,13.72
2019-02-25T11:07:24.658Z,13.86
2019-02-25T11:10:17.785Z,13.90
2019-02-25T11:12:48.476Z,13.80
2019-02-25T11:15:23.893Z,13.64
2019-02-25T11:17:53.978Z,13.64
2019-02-25T11:20:37.743Z,13.65
2019-02-25T11:23:14.375Z,13.85
2019-02-25T11:25:42.973Z,13.91
2019-02-25T11:28:25.942Z,14.08
2019-02-25T11:30:59.626Z,13.94
2019-02-25T11:33:30.229Z,14.25
2019-02-25T11:36:04.936Z,14.11
2019-02-25T11:38:41.057Z,14.08
2019-02-25T11:41:12.073Z,14.24
2019-02-25T11:43:45.774Z,14.28
2019-02-25T11:46:18.630Z,14.25
2019-02-25T11:48:47.737Z,14.36
2019-02-25T11:51:19.879Z,14.52
2019-02-25T11:53:50.106Z,14.51
2019-02-25T11:56:22.282Z,14.67
2019-02-25T11:58:52.848Z,15.08
2019-02-25T12:01:22.049Z,14.76
2019-02-25T12:03:52.995Z,14.91
2019-02-25T12:06:22.160Z,15.00
2019-02-25T12:08:51.253Z,15.23
2019-02-25T12:11:21.726Z,15.33
2019-02-25T12:13:50.760Z,15.33
2019-02-25T12:16:21.845Z,15.37
2019-02-25T12:18:51.711Z,15.59
2019-02-25T12:21:20.953Z,15.33
2019-02-25T12:26:42.428Z,15.57
2019-02-25T12:29:12.032Z,15.76
2019-02-25T12:31:42.001Z,15.82
2019-02-25T12:34:14.742Z,16.01
2019-02-25T12:36:43.922Z,16.12
2019-02-25T12:39:13.191Z,16.20
2019-02-25T12:41:42.558Z,16.38
2019-02-25T12:44:13.795Z,16.67
2019-02-25T12:46:43.200Z,16.97
2019-02-25T12:49:12.316Z,16.91
2019-02-25T12:51:41.588Z,16.80
2019-02-25T12:54:14.342Z,16.79
2019-02-25T12:56:43.451Z,16.51
2019-02-25T12:59:13.691Z,16.70
2019-02-25T13:01:44.020Z,16.62
2019-02-25T13:04:13.136Z,17.07
2019-02-25T13:06:43.969Z,17.05
2019-02-25T13:09:16.736Z,16.78
2019-02-25T13:11:45.872Z,17.10
2019-02-25T13:14:15.054Z,16.87
2019-02-25T13:16:45.441Z,16.79
2019-02-25T13:19:16.039Z,16.82
2019-02-25T13:21:45.137Z,16.78
2019-02-25T13:24:14.260Z,17.15
2019-02-25T13:26:43.461Z,17.25
2019-02-25T13:29:12.631Z,17.22
2019-02-25T13:31:46.036Z,17.17
2019-02-25T13:34:17.862Z,17.51
2019-02-25T13:36:53.024Z,17.73
2019-02-25T13:39:20.400Z,17.57
2019-02-25T13:41:49.555Z,17.87
2019-02-25T13:44:22.437Z,17.70
2019-02-25T13:46:51.637Z,17.58
2019-02-25T13:49:20.926Z,17.60
2019-02-25T13:51:50.068Z,17.67
2019-02-25T13:54:20.763Z,17.63
2019-02-25T13:56:50.186Z,17.70
2019-02-25T13:59:19.269Z,17.49
2019-02-25T14:01:49.385Z,17.73
2019-02-25T14:04:19.569Z,18.06
2019-02-25T14:06:48.699Z,17.97
2019-02-25T14:09:20.441Z,18.29
2019-02-25T14:11:49.539Z,17.91
2019-02-25T14:14:22.811Z,17.83
2019-02-25T14:16:57.221Z,17.88
2019-02-25T14:19:29.479Z,18.08
2019-02-25T14:21:58.753Z,18.49
2019-02-25T14:24:29.544Z,18.56
2019-02-25T14:26:58.697Z,18.74
2019-02-25T14:29:29.324Z,18.34
2019-02-25T14:32:00.229Z,18.48
2019-02-25T14:34:37.925Z,18.69
2019-02-25T14:37:07.362Z,19.08
2019-02-25T14:39:43.139Z,18.73
2019-02-25T14:42:12.235Z,18.37
2019-02-25T14:44:43.939Z,18.67
2019-02-25T14:47:20.413Z,18.67
2019-02-25T14:49:43.664Z,18.60
2019-02-25T14:52:12.796Z,18.82
2019-02-25T14:54:45.703Z,18.97
2019-02-25T14:57:24.892Z,19.14
2019-02-25T14:59:57.516Z,18.83
2019-02-25T15:02:26.616Z,18.83
2019-02-25T15:04:55.741Z,19.54
2019-02-25T15:07:26.753Z,19.24
2019-02-25T15:09:57.941Z,19.33
2019-02-25T15:12:35.763Z,19.22
2019-02-25T15:15:08.844Z,19.33
2019-02-25T15:17:38.245Z,19.17
2019-02-25T15:20:10.508Z,19.08
2019-02-25T15:22:46.093Z,19.03
2019-02-25T15:25:16.822Z,19.02
2019-02-25T15:27:46.989Z,19.20
2019-02-25T15:30:25.647Z,19.28
2019-02-25T15:32:57.123Z,19.40
2019-02-25T15:35:34.448Z,19.52
2019-02-25T15:38:05.368Z,19.24
2019-02-25T15:40:41.031Z,19.21
2019-02-25T15:43:17.747Z,19.17
2019-02-25T15:46:16.370Z,19.06
2019-02-25T15:48:48.764Z,19.13
2019-02-25T15:51:18.496Z,19.02
2019-02-25T15:53:55.711Z,18.65
2019-02-25T15:56:26.130Z,18.48
2019-02-25T15:58:56.436Z,18.50
2019-02-25T16:01:25.519Z,18.62
2019-02-25T16:04:09.143Z,18.57
2019-02-25T16:06:49.009Z,18.65
2019-02-25T16:09:25.463Z,18.60
2019-02-25T16:11:52.538Z,18.52
2019-02-25T16:14:23.079Z,18.64
2019-02-25T16:16:52.465Z,18.65
2019-02-25T16:19:23.119Z,18.72
2019-02-25T16:21:52.698Z,18.62
2019-02-25T16:24:24.070Z,18.49
2019-02-25T16:26:56.263Z,18.33
2019-02-25T16:29:27.125Z,18.31
2019-02-25T16:32:01.271Z,18.34
2019-02-25T16:34:28.349Z,18.33
2019-02-25T16:36:58.249Z,18.21
2019-02-25T16:39:30.373Z,18.20
2019-02-25T16:42:03.832Z,18.31
2019-02-25T16:44:38.116Z,18.61
2019-02-25T16:47:07.894Z,18.34
2019-02-25T16:49:50.337Z,18.17
2019-02-25T16:52:22.777Z,18.07
2019-02-25T16:54:54.420Z,17.92
2019-02-25T16:57:25.075Z,17.40
2019-02-25T16:59:55.904Z,17.68
2019-02-25T17:02:27.484Z,17.64
2019-02-25T17:05:04.551Z,17.64
2019-02-25T17:07:44.309Z,17.44
2019-02-25T17:10:15.492Z,17.44
2019-02-25T17:13:08.084Z,17.03
2019-02-25T17:15:39.672Z,17.16
2019-02-25T17:18:09.048Z,17.06
2019-02-25T17:20:38.229Z,16.56
2019-02-25T17:23:09.669Z,16.94
2019-02-25T17:25:38.922Z,17.07
2019-02-25T17:28:14.342Z,17.01
2019-02-25T17:30:47.278Z,17.11
2019-02-25T17:33:21.795Z,17.07
2019-02-25T17:35:54.238Z,16.98
2019-02-25T17:38:26.563Z,16.92
2019-02-25T17:40:56.491Z,16.67
2019-02-25T17:43:25.688Z,16.58
2019-02-25T17:48:34.235Z,16.48
2019-02-25T17:51:05.829Z,16.42
2019-02-25T17:53:41.022Z,16.34
2019-02-25T17:56:05.976Z,16.27
2019-02-25T17:58:38.103Z,16.15
2019-02-25T18:01:07.987Z,16.15
2019-02-25T18:03:39.639Z,16.13
2019-02-25T18:06:08.131Z,16.06
2019-02-25T18:08:39.336Z,15.73
2019-02-25T18:11:11.172Z,15.63
2019-02-25T18:13:40.314Z,15.29
2019-02-25T18:16:10.223Z,15.31
2019-02-25T18:18:41.322Z,15.35
2019-02-25T18:21:11.266Z,15.24
2019-02-25T18:23:44.473Z,15.20
2019-02-25T18:26:19.589Z,13.96
2019-02-25T18:28:59.045Z,13.97
2019-02-25T18:31:25.062Z,14.57
2019-02-25T18:34:00.674Z,14.60
2019-02-25T18:36:31.185Z,14.63
2019-02-25T18:39:04.413Z,14.62
2019-02-25T18:41:34.432Z,14.63
2019-02-25T18:44:11.345Z,14.59
2019-02-25T18:46:48.224Z,14.53
2019-02-25T18:49:17.589Z,14.43
2019-02-25T18:51:47.966Z,14.26
2019-02-25T18:54:22.895Z,14.18
2019-02-25T18:56:54.412Z,13.58
2019-02-25T18:59:23.509Z,13.97
2019-02-25T19:01:54.102Z,13.91
2019-02-25T19:04:26.065Z,14.35
2019-02-25T19:06:59.842Z,14.46
2019-02-25T19:09:29.433Z,14.16
2019-02-25T19:11:58.781Z,13.79
2019-02-25T19:14:28.825Z,13.90
2019-02-25T19:17:04.810Z,13.90
2019-02-25T19:19:38.169Z,13.70
2019-02-25T19:22:13.120Z,13.63
2019-02-25T19:24:44.569Z,13.78
2019-02-25T19:27:19.227Z,13.90
2019-02-25T19:29:49.408Z,13.71
2019-02-25T19:32:22.992Z,13.58
2019-02-25T19:34:55.995Z,12.78
2019-02-25T19:37:31.222Z,13.31
2019-02-25T19:39:59.710Z,13.18
2019-02-25T19:42:31.298Z,13.48
2019-02-25T19:45:03.895Z,13.20
2019-02-25T19:47:33.005Z,13.20
2019-02-25T19:50:07.500Z,13.36
2019-02-25T19:52:37.244Z,13.39
2019-02-25T19:55:12.833Z,13.31
2019-02-25T19:57:44.834Z,13.08
2019-02-25T20:00:25.755Z,12.98
2019-02-25T20:03:05.617Z,12.57
2019-02-25T20:05:33.094Z,12.61
2019-02-25T20:08:01.595Z,12.20
2019-02-25T20:10:47.260Z,12.61
2019-02-25T20:13:18.139Z,12.96
2019-02-25T20:15:49.001Z,13.01
2019-02-25T20:18:21.078Z,12.39
2019-02-25T20:20:57.746Z,12.37
2019-02-25T20:23:32.059Z,12.62
2019-02-25T20:26:02.622Z,12.91
2019-02-25T20:28:32.150Z,12.81
2019-02-25T20:31:09.601Z,12.91
2019-02-25T20:33:41.795Z,13.00
2019-02-25T20:36:11.749Z,12.44
2019-02-25T20:38:42.283Z,12.47
2019-02-25T20:41:16.067Z,12.59
2019-02-25T20:43:47.245Z,12.87
2019-02-25T20:46:38.695Z,12.51
2019-02-25T20:49:20.883Z,12.74
2019-02-25T20:51:52.782Z,12.81
2019-02-25T20:54:31.323Z,12.92
2019-02-25T20:57:00.851Z,12.86
2019-02-25T20:59:40.195Z,12.65
2019-02-25T21:02:19.403Z,12.69
2019-02-25T21:04:52.365Z,12.25
2019-02-25T21:07:21.496Z,12.19
2019-02-25T21:09:53.685Z,11.93
2019-02-25T21:12:24.559Z,12.01
2019-02-25T21:14:57.301Z,12.30
2019-02-25T21:17:28.439Z,12.57
2019-02-25T21:20:00.323Z,12.37
2019-02-25T21:22:33.973Z,11.69
2019-02-25T21:25:04.960Z,12.07
2019-02-25T21:27:39.069Z,12.04
2019-02-25T21:30:13.156Z,12.02
2019-02-25T21:32:43.255Z,12.22
2019-02-25T21:35:18.187Z,12.38
2019-02-25T21:37:48.322Z,12.20
2019-02-25T21:40:22.290Z,12.28
2019-02-25T21:42:58.817Z,12.41
2019-02-25T21:45:32.341Z,12.36
2019-02-25T21:48:04.910Z,11.68
2019-02-25T21:50:35.979Z,11.64
2019-02-25T21:53:07.512Z,11.14
2019-02-25T21:55:38.272Z,10.90
2019-02-25T21:58:09.562Z,10.89
2019-02-25T22:00:54.103Z,10.98
2019-02-25T22:03:23.219Z,11.05
2019-02-25T22:05:55.628Z,11.02
2019-02-25T22:08:26.684Z,10.78
2019-02-25T22:10:59.603Z,11.24
2019-02-25T22:13:28.432Z,11.55
2019-02-25T22:16:01.100Z,11.11
2019-02-25T22:18:36.359Z,11.01
2019-02-25T22:21:09.199Z,10.57
2019-02-25T22:23:37.136Z,10.21
2019-02-25T22:26:10.890Z,10.09
2019-02-25T22:28:40.002Z,9.95
2019-02-25T22:31:13.370Z,10.01
2019-02-25T22:33:41.682Z,10.24
2019-02-25T22:36:10.802Z,10.66
2019-02-25T22:38:41.015Z,10.83
2019-02-25T22:41:10.316Z,10.77
2019-02-25T22:43:48.169Z,10.43
2019-02-25T22:46:16.001Z,10.35
2019-02-25T22:48:47.192Z,10.83
2019-02-25T22:51:16.125Z,10.71
2019-02-25T22:53:47.355Z,10.60
2019-02-25T22:56:18.126Z,10.35
2019-02-25T22:58:49.276Z,10.60
2019-02-25T23:01:18.633Z,9.89
2019-02-25T23:03:54.512Z,10.16
2019-02-25T23:06:23.591Z,10.31
2019-02-25T23:08:55.567Z,10.14
2019-02-25T23:11:26.150Z,10.00
2019-02-25T23:13:55.721Z,9.84
2019-02-25T23:16:25.429Z,10.02
2019-02-25T23:19:00.837Z,9.81
2019-02-25T23:21:32.134Z,10.33
2019-02-25T23:24:08.589Z,10.16
2019-02-25T23:26:42.812Z,9.93
2019-02-25T23:29:17.605Z,9.71
2019-02-25T23:32:07.017Z,9.36
2019-02-25T23:34:38.634Z,8.88
2019-02-25T23:37:13.002Z,8.97
2019-02-25T23:39:46.854Z,8.91
2019-02-25T23:42:26.238Z,8.53
2019-02-25T23:44:55.387Z,8.52
2019-02-25T23:47:26.910Z,8.58
2019-02-25T23:49:58.721Z,8.32
2019-02-25T23:52:30.974Z,8.38
2019-02-25T23:54:59.691Z,8.38
2019-02-25T23:57:32.621Z,8.47
